Time;durP1;ratioP1;P1;durP2;ratioP2;P2;SDS_P1;SDS_P2;PMS_P1;PMS_P2;Temp;Humidity;BMP_temperature;BMP_pressure;BME280_temperature;BME280_humidity;BME280_pressure;Samples;Min_cycle;Max_cycle;Signal;HPM_P1;HPM_P2
2022/06/19 00:02:11;;;;;;;9.25;2.83;;;26.90;44.60;;;;;;950263;149;27339;-73
2022/06/19 00:04:38;;;;;;;3.55;2.37;;;26.90;44.70;;;;;;950698;147;27401;-73
2022/06/19 00:07:04;;;;;;;4.97;2.40;;;26.80;44.80;;;;;;951737;149;27439;-74
2022/06/19 00:09:31;;;;;;;6.70;2.62;;;26.80;44.90;;;;;;950474;149;27456;-73
2022/06/19 00:11:58;;;;;;;9.18;3.02;;;26.80;45.10;;;;;;951330;148;27288;-73
2022/06/19 00:14:24;;;;;;;6.62;2.35;;;26.80;45.30;;;;;;950847;146;27272;-72
2022/06/19 00:16:51;;;;;;;5.28;2.77;;;26.80;45.30;;;;;;950531;148;27332;-73
2022/06/19 00:19:17;;;;;;;6.30;2.60;;;26.80;45.40;;;;;;949973;149;28006;-73
2022/06/19 00:21:44;;;;;;;4.62;2.42;;;26.80;45.40;;;;;;947541;149;27429;-73
2022/06/19 00:24:11;;;;;;;4.10;2.40;;;26.70;45.40;;;;;;949861;149;27327;-73
2022/06/19 00:26:37;;;;;;;6.53;2.50;;;26.70;45.50;;;;;;947827;149;27320;-73
2022/06/19 00:29:04;;;;;;;6.15;2.60;;;26.70;45.60;;;;;;948716;148;28424;-73
2022/06/19 00:31:30;;;;;;;8.90;3.15;;;26.70;45.70;;;;;;947931;149;27341;-73
2022/06/19 00:33:57;;;;;;;7.17;2.75;;;26.60;45.80;;;;;;949550;149;27364;-73
2022/06/19 00:36:26;;;;;;;3.92;2.40;;;26.50;46.00;;;;;;947559;149;27395;-73
2022/06/19 00:38:50;;;;;;;4.47;3.00;;;26.50;46.10;;;;;;946407;148;27441;-72
2022/06/19 00:41:17;;;;;;;8.30;2.87;;;26.40;46.20;;;;;;948004;149;27352;-73
2022/06/19 00:43:59;;;;;;;5.00;2.80;;;26.30;46.30;;;;;;947819;148;27413;-73
2022/06/19 00:46:37;;;;;;;5.95;2.95;;;26.30;46.50;;;;;;948425;149;27454;-73
2022/06/19 00:49:04;;;;;;;4.10;2.95;;;26.20;46.40;;;;;;947133;149;27437;-73
2022/06/19 00:51:30;;;;;;;9.63;2.70;;;26.10;46.50;;;;;;948586;149;27272;-73
2022/06/19 00:53:57;;;;;;;5.90;2.85;;;26.00;46.60;;;;;;951240;149;27326;-72
2022/06/19 00:56:25;;;;;;;8.10;3.55;;;26.00;46.80;;;;;;949758;149;27638;-73
2022/06/19 00:58:50;;;;;;;6.72;2.80;;;25.90;46.90;;;;;;953277;147;27353;-72
2022/06/19 01:01:19;;;;;;;6.37;2.72;;;25.80;47.00;;;;;;963939;147;27445;-72
2022/06/19 01:03:52;;;;;;;6.33;2.55;;;25.80;47.10;;;;;;962058;147;27331;-73
2022/06/19 01:06:18;;;;;;;7.47;3.12;;;25.70;47.20;;;;;;963387;147;27398;-73
2022/06/19 01:08:47;;;;;;;6.97;2.85;;;25.70;47.30;;;;;;963632;147;27317;-73
2022/06/19 01:11:12;;;;;;;4.40;2.35;;;25.60;47.30;;;;;;961881;147;27344;-73
2022/06/19 01:13:38;;;;;;;5.42;2.65;;;25.60;48.10;;;;;;962700;146;27405;-72
2022/06/19 01:16:05;;;;;;;5.67;2.22;;;25.50;47.50;;;;;;962884;147;27325;-72
2022/06/19 01:18:31;;;;;;;6.55;2.50;;;25.50;47.60;;;;;;961799;147;28403;-72
2022/06/19 01:20:58;;;;;;;6.40;2.70;;;25.40;47.70;;;;;;962545;147;27238;-72
2022/06/19 01:23:30;;;;;;;5.60;2.60;;;25.40;47.80;;;;;;961909;147;27332;-72
2022/06/19 01:25:57;;;;;;;5.17;2.10;;;25.30;48.00;;;;;;962079;147;27491;-72
2022/06/19 01:31:09;;;;;;;4.72;2.37;;;25.20;47.90;;;;;;962908;147;27490;-73
2022/06/19 01:33:44;;;;;;;5.35;2.22;;;25.20;48.10;;;;;;964489;147;27462;-73
2022/06/19 01:36:11;;;;;;;3.72;2.52;;;25.10;48.10;;;;;;964114;147;27328;-73
2022/06/19 01:38:37;;;;;;;4.37;2.47;;;25.10;48.20;;;;;;964144;146;27442;-73
2022/06/19 01:41:04;;;;;;;5.97;2.37;;;25.00;48.30;;;;;;965380;146;27282;-73
2022/06/19 01:43:31;;;;;;;7.60;3.00;;;24.90;48.50;;;;;;962833;147;27426;-72
2022/06/19 01:45:57;;;;;;;7.20;2.42;;;24.90;48.50;;;;;;963322;147;27323;-73
2022/06/19 01:48:24;;;;;;;4.83;2.22;;;24.80;48.70;;;;;;963685;145;27802;-73
2022/06/19 01:50:50;;;;;;;6.72;2.30;;;24.80;48.70;;;;;;964099;147;27329;-72
2022/06/19 01:53:23;;;;;;;7.65;3.33;;;24.70;48.80;;;;;;963650;146;27387;-72
2022/06/19 01:55:49;;;;;;;7.75;2.87;;;24.70;49.00;;;;;;962568;147;27407;-73
2022/06/19 01:58:16;;;;;;;7.47;2.70;;;24.60;49.10;;;;;;961723;147;27414;-73
2022/06/19 02:00:43;;;;;;;5.78;2.30;;;24.70;49.30;;;;;;955905;147;27374;-73
2022/06/19 02:03:21;;;;;;;5.92;2.62;;;24.60;49.40;;;;;;957450;146;27364;-72
2022/06/19 02:05:48;;;;;;;5.78;2.15;;;24.60;49.50;;;;;;955777;148;27326;-71
2022/06/19 02:08:14;;;;;;;5.28;2.30;;;24.60;49.40;;;;;;958756;148;27442;-73
2022/06/19 02:10:41;;;;;;;4.53;2.45;;;24.60;50.20;;;;;;958127;148;27297;-73
2022/06/19 02:13:08;;;;;;;4.17;2.50;;;24.60;49.70;;;;;;958381;148;27354;-73
2022/06/19 02:15:34;;;;;;;5.03;2.80;;;24.60;49.80;;;;;;958007;148;27427;-72
2022/06/19 02:18:01;;;;;;;6.50;2.30;;;24.60;49.80;;;;;;958127;148;27265;-73
2022/06/19 02:20:27;;;;;;;6.97;2.60;;;24.60;49.80;;;;;;958434;148;27317;-72
2022/06/19 02:22:54;;;;;;;5.40;2.60;;;24.60;49.80;;;;;;956655;148;27375;-73
2022/06/19 02:25:20;;;;;;;3.77;2.30;;;24.60;49.90;;;;;;956945;148;27405;-73
2022/06/19 02:27:47;;;;;;;5.08;3.20;;;24.60;50.00;;;;;;957475;148;27450;-73
2022/06/19 02:30:14;;;;;;;4.97;2.77;;;24.60;50.00;;;;;;956896;148;27319;-71
2022/06/19 02:32:40;;;;;;;5.60;3.20;;;24.60;50.00;;;;;;957818;148;27339;-73
2022/06/19 02:35:07;;;;;;;4.20;2.58;;;24.60;50.10;;;;;;955540;148;27636;-73
2022/06/19 02:37:33;;;;;;;7.67;2.83;;;24.60;50.20;;;;;;956811;148;27274;-72
2022/06/19 02:40:19;;;;;;;5.67;3.47;;;24.60;50.20;;;;;;954900;148;27352;-74
2022/06/19 02:42:44;;;;;;;4.75;2.62;;;24.60;50.30;;;;;;957119;148;27358;-72
2022/06/19 02:45:11;;;;;;;5.90;2.70;;;24.60;50.20;;;;;;958284;148;27407;-72
2022/06/19 02:47:37;;;;;;;6.58;3.58;;;24.60;50.20;;;;;;958262;148;27360;-72
2022/06/19 02:50:04;;;;;;;4.47;2.50;;;24.60;51.00;;;;;;959132;148;27341;-73
2022/06/19 02:52:31;;;;;;;6.10;2.30;;;24.60;50.30;;;;;;959723;148;27278;-74
2022/06/19 02:54:57;;;;;;;6.65;2.90;;;24.50;50.30;;;;;;958559;148;27380;-71
2022/06/19 02:57:24;;;;;;;6.45;3.17;;;24.50;50.40;;;;;;959168;148;27405;-70
2022/06/19 02:59:50;;;;;;;7.05;3.17;;;24.50;50.30;;;;;;958475;148;27337;-70
2022/06/19 03:02:17;;;;;;;6.42;2.52;;;24.50;50.50;;;;;;955211;148;27346;-70
2022/06/19 03:04:49;;;;;;;5.25;2.70;;;24.50;50.50;;;;;;953713;148;27358;-73
2022/06/19 03:07:16;;;;;;;3.80;2.83;;;24.50;50.50;;;;;;954249;148;27507;-70
2022/06/19 03:09:43;;;;;;;4.62;2.27;;;24.40;50.60;;;;;;954014;147;27444;-70
2022/06/19 03:12:09;;;;;;;4.12;2.67;;;24.40;50.50;;;;;;953748;148;27309;-70
2022/06/19 03:14:36;;;;;;;4.87;2.40;;;24.40;50.50;;;;;;952168;148;27302;-70
2022/06/19 03:17:02;;;;;;;6.30;2.90;;;24.40;50.50;;;;;;953206;148;27354;-71
2022/06/19 03:19:29;;;;;;;7.45;2.40;;;24.40;50.60;;;;;;953446;146;27346;-70
2022/06/19 03:21:56;;;;;;;7.12;2.40;;;24.40;50.60;;;;;;954661;148;27718;-70
2022/06/19 03:24:23;;;;;;;4.53;2.27;;;24.40;50.60;;;;;;954735;148;27359;-70
2022/06/19 03:26:49;;;;;;;5.12;2.55;;;24.40;50.60;;;;;;954514;148;27396;-70
2022/06/19 03:29:15;;;;;;;7.67;2.85;;;24.40;50.60;;;;;;955387;148;27364;-70
2022/06/19 03:31:42;;;;;;;6.37;2.40;;;24.40;50.60;;;;;;956727;148;27311;-72
2022/06/19 03:34:09;;;;;;;7.22;2.62;;;24.40;50.60;;;;;;955628;148;27701;-71
2022/06/19 03:36:35;;;;;;;4.87;2.80;;;24.40;50.70;;;;;;956634;148;27307;-70
2022/06/19 03:39:02;;;;;;;6.45;2.98;;;24.40;50.70;;;;;;956379;148;27375;-70
2022/06/19 03:41:28;;;;;;;4.75;2.35;;;24.50;50.70;;;;;;955148;148;27404;-72
2022/06/19 03:43:55;;;;;;;5.00;2.42;;;24.50;50.60;;;;;;953357;148;27389;-70
2022/06/19 03:46:22;;;;;;;4.53;2.62;;;24.50;50.70;;;;;;954364;148;27282;-70
2022/06/19 03:48:48;;;;;;;6.12;2.52;;;24.60;50.60;;;;;;953667;148;27306;-70
2022/06/19 03:51:17;;;;;;;5.03;2.50;;;24.70;50.70;;;;;;953030;146;27388;-71
2022/06/19 03:53:41;;;;;;;7.08;2.40;;;24.70;50.60;;;;;;951798;148;27423;-71
2022/06/19 03:56:08;;;;;;;6.87;2.77;;;24.70;51.30;;;;;;953365;148;27310;-70
2022/06/19 03:58:46;;;;;;;4.03;2.47;;;24.80;50.60;;;;;;952725;148;27861;-70
2022/06/19 04:01:21;;;;;;;6.72;2.70;;;24.80;50.60;;;;;;960462;147;27289;-70
2022/06/19 04:03:48;;;;;;;8.60;2.72;;;24.90;50.60;;;;;;968253;146;27274;-70
2022/06/19 04:06:15;;;;;;;3.55;2.47;;;25.00;50.60;;;;;;968483;146;27370;-72
2022/06/19 04:08:41;;;;;;;8.83;2.37;;;25.00;49.90;;;;;;969399;147;27374;-70
2022/06/19 04:11:08;;;;;;;5.15;2.20;;;25.10;50.60;;;;;;970075;147;27317;-70
2022/06/19 04:13:34;;;;;;;7.75;3.08;;;25.20;50.60;;;;;;970026;147;27312;-70
2022/06/19 04:16:01;;;;;;;6.33;2.70;;;25.20;50.60;;;;;;969478;147;27270;-70
2022/06/19 04:18:29;;;;;;;4.78;2.65;;;25.30;50.60;;;;;;967778;146;27266;-70
2022/06/19 04:20:54;;;;;;;6.20;2.90;;;25.40;50.60;;;;;;969306;145;27378;-70
2022/06/19 04:23:21;;;;;;;3.90;2.60;;;25.50;50.60;;;;;;967840;145;27402;-71
2022/06/19 04:25:48;;;;;;;5.75;2.67;;;25.60;50.60;;;;;;968128;145;27341;-70
2022/06/19 04:28:14;;;;;;;9.05;3.00;;;25.70;50.00;;;;;;967109;146;27246;-71
2022/06/19 04:30:46;;;;;;;6.92;2.58;;;25.80;50.60;;;;;;967230;147;27378;-70
2022/06/19 04:33:07;;;;;;;8.15;2.60;;;25.90;50.60;;;;;;965920;146;27437;-70
2022/06/19 04:35:34;;;;;;;9.20;2.80;;;26.00;50.60;;;;;;968729;145;27217;-70
2022/06/19 04:38:00;;;;;;;5.37;2.42;;;26.10;50.60;;;;;;967991;147;27740;-72
2022/06/19 04:40:28;;;;;;;5.45;3.12;;;26.20;50.50;;;;;;967635;147;27413;-71
2022/06/19 04:42:53;;;;;;;5.92;2.15;;;26.40;50.40;;;;;;968664;146;27667;-72
2022/06/19 04:45:20;;;;;;;4.00;2.50;;;26.50;50.90;;;;;;968384;144;27401;-70
2022/06/19 04:47:47;;;;;;;9.28;2.42;;;26.60;50.30;;;;;;969949;147;27313;-70
2022/06/19 04:50:14;;;;;;;4.45;2.40;;;26.80;50.30;;;;;;969006;147;27423;-70
2022/06/19 04:52:40;;;;;;;3.85;2.40;;;27.00;50.30;;;;;;968954;144;27331;-70
2022/06/19 04:55:06;;;;;;;4.33;2.47;;;27.20;50.50;;;;;;970432;147;27278;-70
2022/06/19 04:57:33;;;;;;;4.90;2.20;;;27.60;50.80;;;;;;969006;147;27409;-72
2022/06/19 05:00:00;;;;;;;7.17;2.98;;;27.90;50.80;;;;;;970638;147;27398;-70
2022/06/19 05:02:26;;;;;;;4.90;2.40;;;28.40;50.80;;;;;;957497;145;27294;-70
2022/06/19 05:04:53;;;;;;;6.70;2.80;;;28.80;50.50;;;;;;949347;149;27333;-72
2022/06/19 05:07:19;;;;;;;5.97;2.60;;;29.40;50.20;;;;;;948043;148;27847;-70
2022/06/19 05:09:46;;;;;;;4.00;2.33;;;30.00;49.80;;;;;;947760;149;27440;-70
2022/06/19 05:12:13;;;;;;;4.72;2.50;;;30.50;49.20;;;;;;949594;147;27374;-70
2022/06/19 05:14:39;;;;;;;4.90;2.10;;;31.10;48.60;;;;;;948082;149;27276;-71
2022/06/19 05:17:06;;;;;;;5.33;2.65;;;31.70;48.00;;;;;;947489;148;27269;-71
2022/06/19 05:19:32;;;;;;;4.72;2.62;;;32.20;47.30;;;;;;949585;149;27323;-72
2022/06/19 05:22:02;;;;;;;6.62;2.65;;;32.80;46.80;;;;;;948667;149;27327;-71
2022/06/19 05:24:28;;;;;;;3.08;2.10;;;33.30;46.10;;;;;;951524;149;27388;-70
2022/06/19 05:26:55;;;;;;;6.00;2.83;;;33.80;45.50;;;;;;951151;149;27407;-70
2022/06/19 05:29:21;;;;;;;4.83;2.35;;;34.30;44.80;;;;;;949634;148;27353;-72
2022/06/19 05:31:48;;;;;;;4.92;2.47;;;34.80;44.30;;;;;;951722;149;27271;-72
2022/06/19 05:34:15;;;;;;;6.60;2.37;;;35.30;43.70;;;;;;951080;149;27337;-71
2022/06/19 05:36:41;;;;;;;6.45;2.37;;;35.70;43.30;;;;;;950311;149;27513;-71
2022/06/19 05:39:08;;;;;;;9.05;2.52;;;36.20;42.90;;;;;;952962;149;26186;-71
2022/06/19 05:41:35;;;;;;;7.53;2.42;;;36.70;42.30;;;;;;949683;149;26201;-72
2022/06/19 05:44:01;;;;;;;5.28;2.42;;;37.10;41.50;;;;;;949395;149;27459;-71
2022/06/19 05:46:28;;;;;;;6.17;2.27;;;37.50;40.90;;;;;;947281;149;26649;-71
2022/06/19 05:48:54;;;;;;;3.87;2.00;;;38.00;40.40;;;;;;947247;149;26218;-71
2022/06/19 05:51:21;;;;;;;5.83;2.30;;;38.30;39.70;;;;;;948633;149;26240;-73
2022/06/19 05:53:48;;;;;;;4.97;2.47;;;38.70;39.10;;;;;;948389;147;26258;-72
2022/06/19 05:56:14;;;;;;;4.83;2.33;;;39.00;38.60;;;;;;948806;148;27304;-72
2022/06/19 05:58:41;;;;;;;3.80;2.50;;;39.40;38.20;;;;;;947333;149;26253;-72
2022/06/19 06:01:07;;;;;;;6.10;2.58;;;39.70;37.80;;;;;;948722;149;27304;-72
2022/06/19 06:03:34;;;;;;;4.40;2.27;;;40.10;37.40;;;;;;949890;147;26276;-71
2022/06/19 06:06:01;;;;;;;6.35;2.60;;;40.50;37.50;;;;;;951999;148;27226;-71
2022/06/19 06:08:27;;;;;;;6.95;2.40;;;40.80;36.30;;;;;;952065;148;26253;-72
2022/06/19 06:10:54;;;;;;;6.95;2.40;;;41.20;35.80;;;;;;950150;149;26225;-73
2022/06/19 06:13:20;;;;;;;6.17;2.47;;;41.50;35.40;;;;;;950877;149;26329;-73
2022/06/19 06:15:47;;;;;;;4.03;2.33;;;41.80;34.90;;;;;;950879;147;26233;-71
2022/06/19 06:18:13;;;;;;;4.85;2.33;;;42.20;34.50;;;;;;952437;149;26259;-72
2022/06/19 06:20:40;;;;;;;6.20;2.00;;;42.50;34.00;;;;;;950099;149;26220;-72
2022/06/19 06:23:07;;;;;;;4.72;2.12;;;42.70;33.70;;;;;;948699;149;26258;-72
2022/06/19 06:25:34;;;;;;;7.00;2.00;;;43.00;33.40;;;;;;946966;149;26237;-73
2022/06/19 06:28:00;;;;;;;5.42;2.55;;;43.40;33.30;;;;;;947424;149;26237;-74
2022/06/19 06:30:26;;;;;;;10.85;2.70;;;43.80;32.80;;;;;;948376;146;27887;-75
2022/06/19 06:32:53;;;;;;;5.78;2.58;;;44.20;32.50;;;;;;947624;149;26812;-76
2022/06/19 06:35:20;;;;;;;10.10;3.22;;;44.60;32.00;;;;;;948719;149;27841;-76
2022/06/19 06:37:46;;;;;;;7.50;2.20;;;45.00;31.60;;;;;;948898;149;26170;-73
2022/06/19 06:40:13;;;;;;;5.97;2.70;;;45.30;31.00;;;;;;946942;149;26237;-74
2022/06/19 06:42:39;;;;;;;4.30;2.25;;;45.80;30.60;;;;;;950565;148;26274;-75
2022/06/19 06:45:07;;;;;;;6.15;2.70;;;46.00;30.20;;;;;;951081;149;26561;-74
2022/06/19 06:47:33;;;;;;;7.30;2.40;;;46.40;29.90;;;;;;951565;147;26213;-73
2022/06/19 06:49:59;;;;;;;6.28;2.47;;;46.70;29.60;;;;;;950040;149;26247;-73
2022/06/19 06:52:26;;;;;;;5.33;2.47;;;47.00;29.40;;;;;;951274;149;26302;-73
2022/06/19 06:54:53;;;;;;;8.10;2.87;;;47.20;29.00;;;;;;952730;146;26256;-72
2022/06/19 06:57:19;;;;;;;4.33;2.40;;;47.50;28.70;;;;;;951659;149;26187;-72
2022/06/19 06:59:46;;;;;;;7.20;2.47;;;47.80;28.50;;;;;;951524;149;26235;-73
2022/06/19 07:02:12;;;;;;;4.65;2.62;;;48.00;28.40;;;;;;948908;147;26126;-73
2022/06/19 07:04:39;;;;;;;5.62;2.52;;;48.20;28.10;;;;;;966908;144;26217;-73
2022/06/19 07:07:05;;;;;;;5.35;2.67;;;48.50;27.80;;;;;;967962;147;26233;-72
2022/06/19 07:09:32;;;;;;;6.12;2.50;;;48.70;27.70;;;;;;966033;147;26682;-75
2022/06/19 07:11:59;;;;;;;7.00;2.72;;;48.80;27.50;;;;;;967770;147;26225;-72
2022/06/19 07:14:25;;;;;;;3.27;2.20;;;49.00;27.20;;;;;;967780;144;26333;-73
2022/06/19 07:16:52;;;;;;;6.30;2.50;;;49.10;27.10;;;;;;966366;147;26292;-72
2022/06/19 07:19:18;;;;;;;6.60;3.02;;;49.40;27.00;;;;;;967204;147;26321;-72
2022/06/19 07:21:45;;;;;;;3.83;2.75;;;49.50;26.60;;;;;;967381;145;26287;-73
2022/06/19 07:24:12;;;;;;;4.78;2.58;;;49.60;26.20;;;;;;968159;146;26207;-75
2022/06/19 07:26:38;;;;;;;5.25;2.75;;;49.50;25.90;;;;;;966883;146;26228;-73
2022/06/19 07:29:05;;;;;;;4.30;2.62;;;49.50;25.90;;;;;;968049;147;28263;-73
2022/06/19 07:31:31;;;;;;;3.00;2.67;;;49.50;26.00;;;;;;967240;147;26195;-75
2022/06/19 07:33:58;;;;;;;8.73;3.25;;;49.40;26.20;;;;;;967733;146;26210;-73
2022/06/19 07:36:25;;;;;;;3.95;2.40;;;49.50;26.20;;;;;;966938;145;26195;-74
2022/06/19 07:38:51;;;;;;;8.03;3.20;;;49.60;26.00;;;;;;967774;147;26230;-74
2022/06/19 07:41:18;;;;;;;5.92;2.62;;;49.80;25.50;;;;;;966169;147;26336;-73
2022/06/19 07:43:45;;;;;;;7.85;3.05;;;49.90;25.40;;;;;;966502;147;26220;-73
2022/06/19 07:46:11;;;;;;;4.12;2.37;;;49.90;25.20;;;;;;967467;145;26271;-74
2022/06/19 07:51:22;;;;;;;8.60;2.60;;;49.90;25.10;;;;;;966701;147;26246;-75
2022/06/19 07:53:49;;;;;;;6.03;2.80;;;49.90;25.10;;;;;;967826;147;26228;-72
2022/06/19 07:56:15;;;;;;;5.47;2.60;;;49.90;25.00;;;;;;966372;147;26221;-73
2022/06/19 07:58:43;;;;;;;4.87;3.10;;;50.00;25.10;;;;;;967429;147;26234;-74
2022/06/19 08:01:09;;;;;;;5.60;2.40;;;50.00;24.90;;;;;;968164;146;26230;-74
2022/06/19 08:03:35;;;;;;;6.37;2.72;;;50.10;24.60;;;;;;963384;147;26592;-72
2022/06/19 08:06:02;;;;;;;6.05;2.77;;;50.20;24.60;;;;;;950144;149;28352;-73
2022/06/19 08:08:28;;;;;;;4.53;2.37;;;50.30;24.50;;;;;;949225;146;26319;-75
2022/06/19 08:10:55;;;;;;;4.33;2.80;;;50.30;24.40;;;;;;943578;150;26287;-72
2022/06/19 08:13:21;;;;;;;6.65;2.20;;;50.20;24.20;;;;;;952187;147;26178;-73
2022/06/19 08:15:48;;;;;;;4.80;3.00;;;50.20;24.20;;;;;;953705;147;26332;-76
2022/06/19 08:18:15;;;;;;;8.58;2.92;;;50.20;24.10;;;;;;952148;147;26324;-73
2022/06/19 08:20:41;;;;;;;7.62;2.70;;;50.20;24.20;;;;;;952727;147;26317;-73
2022/06/19 08:23:08;;;;;;;6.70;2.50;;;50.20;24.20;;;;;;950062;147;26229;-73
2022/06/19 08:25:34;;;;;;;7.08;2.70;;;50.30;24.10;;;;;;951870;147;26268;-74
2022/06/19 08:28:01;;;;;;;4.97;2.25;;;50.40;24.00;;;;;;950212;147;26270;-73
2022/06/19 08:30:28;;;;;;;9.08;3.12;;;50.40;24.00;;;;;;951291;147;26338;-75
2022/06/19 08:32:54;;;;;;;7.60;3.10;;;50.40;24.00;;;;;;950247;147;26214;-73
2022/06/19 08:35:21;;;;;;;5.70;2.85;;;50.50;23.90;;;;;;949586;147;26344;-74
2022/06/19 08:37:50;;;;;;;3.70;2.47;;;50.60;23.80;;;;;;949797;147;26387;-74
2022/06/19 08:40:20;;;;;;;4.03;2.22;;;50.80;23.80;;;;;;949813;147;26383;-72
2022/06/19 08:42:49;;;;;;;5.22;2.60;;;50.80;23.80;;;;;;949233;147;26390;-72
2022/06/19 08:45:25;;;;;;;4.05;2.47;;;51.00;23.80;;;;;;951033;147;26359;-73
2022/06/19 08:48:00;;;;;;;5.72;2.47;;;51.20;23.60;;;;;;952471;147;26322;-73
2022/06/19 08:50:33;;;;;;;6.72;2.50;;;51.50;23.50;;;;;;945976;147;26373;-75
2022/06/19 08:53:11;;;;;;;5.72;2.45;;;51.70;23.30;;;;;;952495;147;26264;-75
2022/06/19 08:55:52;;;;;;;5.65;2.87;;;51.90;23.20;;;;;;952512;147;26389;-73
2022/06/19 08:58:34;;;;;;;3.27;2.45;;;52.10;22.90;;;;;;953745;147;26245;-73
2022/06/19 09:01:09;;;;;;;5.12;2.62;;;52.30;22.80;;;;;;951840;147;26357;-73
2022/06/19 09:06:41;;;;;;;5.65;2.40;;;52.30;22.40;;;;;;951411;147;26422;-72
2022/06/19 09:09:08;;;;;;;5.55;2.70;;;52.20;22.40;;;;;;948204;147;26732;-75
2022/06/19 09:11:53;;;;;;;6.03;3.00;;;52.10;22.40;;;;;;949680;147;26267;-73
2022/06/19 09:14:28;;;;;;;6.60;2.83;;;52.10;22.60;;;;;;949970;147;26268;-72
2022/06/19 09:16:58;;;;;;;4.62;2.33;;;51.90;22.50;;;;;;950235;147;26350;-73
2022/06/19 09:19:45;;;;;;;7.08;2.60;;;51.90;22.50;;;;;;949905;147;26795;-73
2022/06/19 09:22:24;;;;;;;5.10;2.60;;;51.80;22.50;;;;;;950625;147;26302;-73
2022/06/19 09:24:59;;;;;;;2.75;2.25;;;51.90;22.50;;;;;;950901;147;26681;-73
2022/06/19 09:27:25;;;;;;;3.90;2.15;;;51.90;22.60;;;;;;952058;147;26268;-72
2022/06/19 09:29:55;;;;;;;6.85;2.70;;;51.90;22.50;;;;;;951759;147;26306;-73
2022/06/19 09:32:37;;;;;;;6.40;2.67;;;52.00;22.50;;;;;;947234;149;27735;-73
2022/06/19 09:35:21;;;;;;;5.22;2.70;;;52.00;22.40;;;;;;951643;147;26329;-75
2022/06/19 09:37:54;;;;;;;3.27;2.37;;;52.00;22.70;;;;;;951351;147;26695;-73
2022/06/19 09:40:32;;;;;;;3.08;2.27;;;52.00;22.30;;;;;;952470;149;26257;-73
2022/06/19 09:43:01;;;;;;;6.90;2.60;;;51.90;22.20;;;;;;949628;147;26258;-74
2022/06/19 09:45:40;;;;;;;6.15;2.77;;;51.80;22.30;;;;;;950300;146;26275;-73
2022/06/19 09:48:21;;;;;;;5.95;2.60;;;51.80;22.40;;;;;;943165;147;26233;-73
2022/06/19 09:50:48;;;;;;;4.75;2.52;;;51.70;22.30;;;;;;950314;147;26211;-75
2022/06/19 09:53:20;;;;;;;2.60;2.40;;;51.70;22.30;;;;;;949048;147;26286;-74
2022/06/19 09:55:52;;;;;;;5.20;2.60;;;51.60;22.30;;;;;;950035;147;26354;-74
2022/06/19 09:58:34;;;;;;;4.33;3.02;;;51.50;22.40;;;;;;948181;147;26370;-74
2022/06/19 10:01:00;;;;;;;4.65;2.47;;;51.50;22.30;;;;;;940042;147;26278;-73
2022/06/19 10:03:30;;;;;;;7.60;3.83;;;51.30;22.30;;;;;;952153;147;26254;-73
2022/06/19 10:06:07;;;;;;;3.00;2.25;;;51.10;22.30;;;;;;944934;147;26289;-73
2022/06/19 10:08:46;;;;;;;5.00;2.50;;;50.80;22.40;;;;;;940096;149;26454;-73
2022/06/19 10:11:13;;;;;;;7.33;3.05;;;50.50;22.50;;;;;;936035;149;26198;-72
2022/06/19 10:13:48;;;;;;;5.22;2.60;;;50.20;22.50;;;;;;938915;148;26304;-73
2022/06/19 10:16:27;;;;;;;4.92;2.62;;;49.90;22.70;;;;;;945310;151;26636;-74
2022/06/19 10:18:53;;;;;;;7.83;3.00;;;49.50;22.60;;;;;;956295;148;26252;-73
2022/06/19 10:24:29;;;;;;;6.37;2.67;;;48.70;23.00;;;;;;938640;151;26261;-72
2022/06/19 10:27:14;;;;;;;4.90;2.65;;;48.30;23.10;;;;;;940166;151;26260;-72
2022/06/19 10:29:55;;;;;;;3.33;2.42;;;48.00;23.30;;;;;;939276;150;26353;-73
2022/06/19 10:32:24;;;;;;;4.65;2.80;;;47.50;23.40;;;;;;913261;151;26279;-73
2022/06/19 10:35:03;;;;;;;6.83;3.17;;;47.20;23.50;;;;;;937760;151;26377;-73
2022/06/19 10:37:45;;;;;;;7.00;3.37;;;46.90;23.70;;;;;;936758;151;26282;-73
2022/06/19 10:40:32;;;;;;;4.20;3.05;;;46.50;23.90;;;;;;943998;151;26338;-72
2022/06/19 10:43:02;;;;;;;5.15;3.10;;;46.10;24.10;;;;;;951830;148;26348;-72
2022/06/19 10:45:40;;;;;;;6.67;3.35;;;45.70;24.20;;;;;;953743;148;26302;-73
2022/06/19 10:48:22;;;;;;;6.87;3.42;;;45.40;24.50;;;;;;955096;149;26266;-73
2022/06/19 10:51:13;;;;;;;7.80;3.35;;;45.00;24.80;;;;;;955587;149;26200;-73
2022/06/19 10:54:16;;;;;;;8.58;2.98;;;44.70;24.90;;;;;;955537;149;26351;-73
2022/06/19 10:56:55;;;;;;;5.72;3.25;;;44.40;25.00;;;;;;954458;148;26330;-73
2022/06/19 10:59:23;;;;;;;5.83;3.10;;;44.10;25.10;;;;;;956892;148;26232;-75
2022/06/19 11:04:54;;;;;;;4.40;2.98;;;43.60;25.50;;;;;;938386;151;26166;-72
2022/06/19 11:07:20;;;;;;;6.75;3.20;;;43.30;25.60;;;;;;948725;147;26306;-72
2022/06/19 11:09:47;;;;;;;5.25;3.47;;;43.10;26.00;;;;;;950443;147;27481;-74
2022/06/19 11:12:22;;;;;;;5.08;3.08;;;42.90;26.00;;;;;;950185;147;27356;-72
2022/06/19 11:14:55;;;;;;;7.17;3.60;;;42.70;26.10;;;;;;950098;147;26166;-73
2022/06/19 11:17:42;;;;;;;4.85;3.10;;;42.50;26.50;;;;;;950005;147;27488;-74
2022/06/19 11:20:17;;;;;;;4.85;3.27;;;42.40;26.60;;;;;;950150;147;27336;-74
2022/06/19 11:22:47;;;;;;;5.00;3.40;;;42.30;26.80;;;;;;949716;147;27434;-73
2022/06/19 11:25:20;;;;;;;6.95;3.95;;;42.10;26.80;;;;;;951093;147;26281;-71
2022/06/19 11:27:55;;;;;;;5.72;3.25;;;42.00;27.00;;;;;;952339;147;27371;-73
2022/06/19 11:30:28;;;;;;;5.42;3.50;;;41.80;27.20;;;;;;951729;147;26245;-72
2022/06/19 11:32:54;;;;;;;5.03;3.40;;;41.70;27.30;;;;;;951869;149;26337;-75
2022/06/19 11:35:20;;;;;;;6.08;3.27;;;41.60;27.40;;;;;;952785;147;27341;-73
2022/06/19 11:37:54;;;;;;;3.90;3.50;;;41.50;27.60;;;;;;952838;147;26206;-72
2022/06/19 11:40:19;;;;;;;3.87;3.42;;;41.50;27.70;;;;;;951620;147;26286;-73
2022/06/19 11:42:49;;;;;;;6.95;3.85;;;41.40;27.80;;;;;;951144;147;26293;-73
2022/06/19 11:45:15;;;;;;;6.58;3.70;;;41.30;27.80;;;;;;952796;147;26177;-74
2022/06/19 11:47:42;;;;;;;8.03;3.72;;;41.30;27.90;;;;;;950244;147;26668;-72
2022/06/19 11:50:14;;;;;;;5.28;3.67;;;41.20;28.00;;;;;;949031;147;26286;-75
2022/06/19 11:52:41;;;;;;;8.88;3.17;;;41.20;28.20;;;;;;950372;147;26305;-72
2022/06/19 11:55:28;;;;;;;8.20;3.90;;;41.20;28.20;;;;;;949662;147;27779;-73
2022/06/19 11:57:55;;;;;;;4.47;3.17;;;41.20;28.30;;;;;;946553;147;26274;-72
2022/06/19 12:00:21;;;;;;;8.48;3.65;;;41.10;28.30;;;;;;949124;147;26334;-73
2022/06/19 12:02:48;;;;;;;6.08;3.45;;;41.10;28.50;;;;;;945672;147;27469;-74
2022/06/19 12:05:33;;;;;;;6.30;3.50;;;41.10;28.60;;;;;;950526;147;26245;-75
2022/06/19 12:08:00;;;;;;;6.67;3.77;;;41.00;28.60;;;;;;940344;149;26409;-75
2022/06/19 12:10:26;;;;;;;5.37;3.67;;;41.10;28.60;;;;;;937860;151;26268;-72
2022/06/19 12:12:59;;;;;;;4.12;3.70;;;41.10;28.70;;;;;;956689;146;26356;-73
2022/06/19 12:15:31;;;;;;;4.78;3.33;;;41.10;28.60;;;;;;956604;149;26198;-73
2022/06/19 12:17:58;;;;;;;4.95;3.35;;;41.00;28.70;;;;;;954644;149;27289;-72
2022/06/19 12:20:24;;;;;;;6.17;4.03;;;41.00;28.80;;;;;;951047;149;26893;-75
2022/06/19 12:22:51;;;;;;;4.97;3.75;;;41.00;28.80;;;;;;955304;146;26321;-73
2022/06/19 12:25:35;;;;;;;7.35;3.62;;;41.00;28.80;;;;;;955869;148;27488;-72
2022/06/19 12:28:36;;;;;;;6.85;3.55;;;41.00;28.80;;;;;;945118;151;26373;-75
2022/06/19 12:31:05;;;;;;;6.20;3.87;;;41.00;28.90;;;;;;937887;151;26272;-73
2022/06/19 12:33:41;;;;;;;6.03;3.47;;;40.90;28.90;;;;;;945537;150;26625;-72
2022/06/19 12:36:08;;;;;;;7.75;3.62;;;40.90;29.00;;;;;;944845;150;28286;-72
2022/06/19 12:38:37;;;;;;;6.70;3.72;;;40.90;29.10;;;;;;952553;149;27327;-73
2022/06/19 12:41:21;;;;;;;6.50;3.83;;;40.90;29.10;;;;;;936891;150;27393;-72
2022/06/19 12:43:54;;;;;;;5.97;3.72;;;40.80;29.00;;;;;;937903;151;26313;-75
2022/06/19 12:46:29;;;;;;;4.37;3.30;;;40.80;29.20;;;;;;938416;150;26349;-73
2022/06/19 12:49:01;;;;;;;6.85;4.03;;;40.80;29.20;;;;;;937129;151;26401;-73
2022/06/19 12:51:33;;;;;;;5.70;3.47;;;40.80;29.20;;;;;;937113;151;26313;-74
2022/06/19 12:54:15;;;;;;;7.03;3.65;;;40.80;29.30;;;;;;918740;151;26330;-75
2022/06/19 12:56:51;;;;;;;6.30;3.58;;;40.80;29.20;;;;;;960228;148;26228;-75
2022/06/19 12:59:20;;;;;;;8.18;3.67;;;40.80;29.30;;;;;;955403;148;26358;-72
2022/06/19 13:02:14;;;;;;;6.28;3.90;;;40.80;29.40;;;;;;956960;148;26233;-74
2022/06/19 13:04:40;;;;;;;6.58;3.37;;;40.80;29.50;;;;;;938882;151;27349;-72
2022/06/19 13:07:13;;;;;;;6.70;3.50;;;40.70;29.40;;;;;;935874;149;26269;-73
2022/06/19 13:09:57;;;;;;;7.12;4.00;;;40.70;29.80;;;;;;952640;148;26248;-74
2022/06/19 13:12:38;;;;;;;7.42;3.45;;;40.60;30.00;;;;;;922043;151;26784;-73
2022/06/19 13:15:07;;;;;;;4.95;3.87;;;40.60;30.00;;;;;;939401;151;27351;-72